createdAt,value
2018-07-22T00:02:22.937Z,24.67
2018-07-22T00:04:49.305Z,24.69
2018-07-22T00:07:15.705Z,24.72
2018-07-22T00:09:42.043Z,24.60
2018-07-22T00:12:08.481Z,24.61
2018-07-22T00:14:34.876Z,24.59
2018-07-22T00:17:01.267Z,24.59
2018-07-22T00:19:27.724Z,24.60
2018-07-22T00:21:54.099Z,24.62
2018-07-22T00:24:20.445Z,24.68
2018-07-22T00:26:46.775Z,24.65
2018-07-22T00:29:13.217Z,24.66
2018-07-22T00:31:39.552Z,24.66
2018-07-22T00:34:05.969Z,24.59
2018-07-22T00:36:32.341Z,24.48
2018-07-22T00:38:58.712Z,24.50
2018-07-22T00:41:25.045Z,24.40
2018-07-22T00:43:51.415Z,24.38
2018-07-22T00:46:17.811Z,24.46
2018-07-22T00:48:44.187Z,24.35
2018-07-22T00:51:10.545Z,24.36
2018-07-22T00:53:36.877Z,24.28
2018-07-22T00:56:03.281Z,24.40
2018-07-22T00:58:29.684Z,24.40
2018-07-22T01:00:56.017Z,24.32
2018-07-22T01:03:22.403Z,24.32
2018-07-22T01:05:48.761Z,24.27
2018-07-22T01:08:15.088Z,24.24
2018-07-22T01:10:41.421Z,24.42
2018-07-22T01:13:07.752Z,24.35
2018-07-22T01:15:34.134Z,24.24
2018-07-22T01:18:00.502Z,24.17
2018-07-22T01:20:26.880Z,24.31
2018-07-22T01:22:53.243Z,24.31
2018-07-22T01:25:19.617Z,24.16
2018-07-22T01:27:46.102Z,24.30
2018-07-22T01:30:12.445Z,24.25
2018-07-22T01:32:38.774Z,24.29
2018-07-22T01:35:05.436Z,24.28
2018-07-22T01:37:31.954Z,24.28
2018-07-22T01:39:58.295Z,24.30
2018-07-22T01:42:24.654Z,24.14
2018-07-22T01:44:50.971Z,24.18
2018-07-22T01:47:17.343Z,24.13
2018-07-22T01:49:43.675Z,24.19
2018-07-22T01:52:10.071Z,24.12
2018-07-22T01:54:36.588Z,24.11
2018-07-22T01:57:02.942Z,24.11
2018-07-22T01:59:29.268Z,24.18
2018-07-22T02:01:55.601Z,24.22
2018-07-22T02:04:21.934Z,24.23
2018-07-22T02:06:48.348Z,24.21
2018-07-22T02:09:14.753Z,24.14
2018-07-22T02:11:41.130Z,24.19
2018-07-22T02:14:07.512Z,24.13
2018-07-22T02:16:34.074Z,24.19
2018-07-22T02:19:00.473Z,24.13
2018-07-22T02:21:26.837Z,24.15
2018-07-22T02:23:53.274Z,24.12
2018-07-22T02:26:19.712Z,24.13
2018-07-22T02:28:46.083Z,24.12
2018-07-22T02:31:12.515Z,24.15
2018-07-22T02:33:38.838Z,24.14
2018-07-22T02:36:05.228Z,24.12
2018-07-22T02:38:31.565Z,24.11
2018-07-22T02:40:57.894Z,24.08
2018-07-22T02:43:24.228Z,24.10
2018-07-22T02:45:50.615Z,24.08
2018-07-22T02:48:16.952Z,24.06
2018-07-22T02:50:43.271Z,24.09
2018-07-22T02:53:09.633Z,24.03
2018-07-22T02:55:35.960Z,24.07
2018-07-22T02:58:02.331Z,24.05
2018-07-22T03:00:28.663Z,24.04
2018-07-22T03:02:54.997Z,24.04
2018-07-22T03:05:21.364Z,24.04
2018-07-22T03:07:47.739Z,24.02
2018-07-22T03:10:14.078Z,24.01
2018-07-22T03:12:40.480Z,23.97
2018-07-22T03:15:06.834Z,23.99
2018-07-22T03:17:33.174Z,24.00
2018-07-22T03:19:59.549Z,23.95
2018-07-22T03:22:25.878Z,23.78
2018-07-22T03:24:52.268Z,23.81
2018-07-22T03:27:18.608Z,23.85
2018-07-22T03:29:45.001Z,23.86
2018-07-22T03:32:11.347Z,23.92
2018-07-22T03:34:37.679Z,23.99
2018-07-22T03:37:04.105Z,23.96
2018-07-22T03:39:30.443Z,24.04
2018-07-22T03:41:56.835Z,24.08
2018-07-22T03:44:23.190Z,24.00
2018-07-22T03:46:49.540Z,23.95
2018-07-22T03:49:15.927Z,23.93
2018-07-22T03:51:42.290Z,24.02
2018-07-22T03:54:08.636Z,24.02
2018-07-22T03:56:34.982Z,24.03
2018-07-22T03:59:01.323Z,24.03
2018-07-22T04:01:27.690Z,24.06
2018-07-22T04:03:54.031Z,24.01
2018-07-22T04:06:20.417Z,24.07
2018-07-22T04:08:46.756Z,24.18
2018-07-22T04:11:13.083Z,24.14
2018-07-22T04:13:39.457Z,24.29
2018-07-22T04:16:05.915Z,24.20
2018-07-22T04:18:32.340Z,24.01
2018-07-22T04:20:58.695Z,23.91
2018-07-22T04:23:25.044Z,24.05
2018-07-22T04:25:51.435Z,24.05
2018-07-22T04:28:17.758Z,24.25
2018-07-22T04:30:44.122Z,24.35
2018-07-22T04:33:10.448Z,24.36
2018-07-22T04:35:36.778Z,24.35
2018-07-22T04:38:03.126Z,24.30
2018-07-22T04:40:29.500Z,24.35
2018-07-22T04:42:55.911Z,24.40
2018-07-22T04:45:22.306Z,24.49
2018-07-22T04:47:48.634Z,24.50
2018-07-22T04:50:14.994Z,24.59
2018-07-22T04:52:41.355Z,24.57
2018-07-22T04:55:07.698Z,24.62
2018-07-22T04:57:34.068Z,24.56
2018-07-22T05:00:00.419Z,24.65
2018-07-22T05:02:26.790Z,24.68
2018-07-22T05:04:53.103Z,24.70
2018-07-22T05:07:19.437Z,24.63
2018-07-22T05:09:45.809Z,24.70
2018-07-22T05:12:12.145Z,24.79
2018-07-22T05:14:38.553Z,24.85
2018-07-22T05:17:04.926Z,24.83
2018-07-22T05:19:31.270Z,24.86
2018-07-22T05:21:57.644Z,24.91
2018-07-22T05:24:24.034Z,25.01
2018-07-22T05:26:50.405Z,24.97
2018-07-22T05:29:16.733Z,25.10
2018-07-22T05:31:43.091Z,25.01
2018-07-22T05:34:09.466Z,25.04
2018-07-22T05:36:35.890Z,25.07
2018-07-22T05:39:02.300Z,25.09
2018-07-22T05:41:28.632Z,25.16
2018-07-22T05:43:55.045Z,25.20
2018-07-22T05:46:21.563Z,25.23
2018-07-22T05:48:47.916Z,25.27
2018-07-22T05:51:14.318Z,25.32
2018-07-22T05:53:40.687Z,25.33
2018-07-22T05:56:07.063Z,25.37
2018-07-22T05:58:33.457Z,25.42
2018-07-22T06:00:59.813Z,25.45
2018-07-22T06:03:26.171Z,25.47
2018-07-22T06:05:52.509Z,25.48
2018-07-22T06:08:18.914Z,25.51
2018-07-22T06:10:45.310Z,25.55
2018-07-22T06:13:11.663Z,25.60
2018-07-22T06:15:37.997Z,25.61
2018-07-22T06:18:04.468Z,25.63
2018-07-22T06:20:30.846Z,25.65
2018-07-22T06:22:57.203Z,25.66
2018-07-22T06:25:23.555Z,25.70
2018-07-22T06:27:49.932Z,25.70
2018-07-22T06:30:16.268Z,25.72
2018-07-22T06:32:42.612Z,25.72
2018-07-22T06:35:09.078Z,25.73
2018-07-22T06:37:35.382Z,25.74
2018-07-22T06:40:01.709Z,25.75
2018-07-22T06:42:28.049Z,25.77
2018-07-22T06:44:54.540Z,25.77
2018-07-22T06:47:20.908Z,25.74
2018-07-22T06:49:47.230Z,25.75
2018-07-22T06:52:13.604Z,25.76
2018-07-22T06:54:39.942Z,25.79
2018-07-22T06:57:06.328Z,25.80
2018-07-22T06:59:32.724Z,25.82
2018-07-22T07:01:59.101Z,25.85
2018-07-22T07:04:25.495Z,25.86
2018-07-22T07:06:51.868Z,25.88
2018-07-22T07:09:18.251Z,25.89
2018-07-22T07:11:44.615Z,25.90
2018-07-22T07:14:10.999Z,25.93
2018-07-22T07:16:37.383Z,25.96
2018-07-22T07:19:03.734Z,25.98
2018-07-22T07:21:30.088Z,26.01
2018-07-22T07:23:56.418Z,25.99
2018-07-22T07:26:22.776Z,26.01
2018-07-22T07:28:49.179Z,26.07
2018-07-22T07:31:15.560Z,26.09
2018-07-22T07:33:41.975Z,26.09
2018-07-22T07:36:08.302Z,26.13
2018-07-22T07:38:34.677Z,26.11
2018-07-22T07:41:01.061Z,26.14
2018-07-22T07:43:27.445Z,26.16
2018-07-22T07:45:53.774Z,26.18
2018-07-22T07:48:20.097Z,26.20
2018-07-22T07:50:46.434Z,26.22
2018-07-22T07:53:12.783Z,26.22
2018-07-22T07:55:39.152Z,26.24
2018-07-22T07:58:05.486Z,26.26
2018-07-22T08:00:31.847Z,26.28
2018-07-22T08:02:58.192Z,26.28
2018-07-22T08:05:24.657Z,26.30
2018-07-22T08:07:51.119Z,26.32
2018-07-22T08:10:17.469Z,26.33
2018-07-22T08:12:43.803Z,26.35
2018-07-22T08:15:10.135Z,26.36
2018-07-22T08:17:36.541Z,26.35
2018-07-22T08:20:02.886Z,26.36
2018-07-22T08:22:29.226Z,26.36
2018-07-22T08:24:55.572Z,26.38
2018-07-22T08:27:21.983Z,26.37
2018-07-22T08:29:48.360Z,26.39
2018-07-22T08:32:14.719Z,26.39
2018-07-22T08:34:41.101Z,26.40
2018-07-22T08:37:07.505Z,26.41
2018-07-22T08:39:33.890Z,26.42
2018-07-22T08:42:00.254Z,26.44
2018-07-22T08:44:26.598Z,26.44
2018-07-22T08:46:52.919Z,26.44
2018-07-22T08:49:19.264Z,26.44
2018-07-22T08:51:45.676Z,26.45
2018-07-22T08:54:12.098Z,26.46
2018-07-22T08:56:38.444Z,26.45
2018-07-22T08:59:04.787Z,26.45
2018-07-22T09:01:31.144Z,26.45
2018-07-22T09:03:57.539Z,26.46
2018-07-22T09:06:23.967Z,26.46
2018-07-22T09:08:50.319Z,26.46
2018-07-22T09:11:16.638Z,26.47
2018-07-22T09:13:42.968Z,26.49
2018-07-22T09:16:09.400Z,26.48
2018-07-22T09:18:35.897Z,26.49
2018-07-22T09:21:02.252Z,26.50
2018-07-22T09:23:28.791Z,26.51
2018-07-22T09:25:55.207Z,26.49
2018-07-22T09:28:21.561Z,26.51
2018-07-22T09:30:47.909Z,26.51
2018-07-22T09:33:14.262Z,26.51
2018-07-22T09:35:40.647Z,26.50
2018-07-22T09:38:06.990Z,26.53
2018-07-22T09:40:33.364Z,26.53
2018-07-22T09:42:59.711Z,26.53
2018-07-22T09:45:26.072Z,26.53
2018-07-22T09:47:52.434Z,26.54
2018-07-22T09:50:18.794Z,26.53
2018-07-22T09:52:45.139Z,26.54
2018-07-22T09:55:11.470Z,26.55
2018-07-22T09:57:37.798Z,26.55
2018-07-22T10:00:04.287Z,26.55
2018-07-22T10:02:30.674Z,26.57
2018-07-22T10:04:57.029Z,26.56
2018-07-22T10:07:23.416Z,26.57
2018-07-22T10:09:49.764Z,26.56
2018-07-22T10:12:16.094Z,26.57
2018-07-22T10:14:42.565Z,26.57
2018-07-22T10:17:08.848Z,26.59
2018-07-22T10:19:35.238Z,26.59
2018-07-22T10:22:01.653Z,26.60
2018-07-22T10:24:28.008Z,26.60
2018-07-22T10:26:54.344Z,26.62
2018-07-22T10:29:20.694Z,26.61
2018-07-22T10:31:47.042Z,26.62
2018-07-22T10:34:13.410Z,26.63
2018-07-22T10:36:39.746Z,26.65
2018-07-22T10:39:06.120Z,26.65
2018-07-22T10:41:32.509Z,26.65
2018-07-22T10:43:58.851Z,26.67
2018-07-22T10:46:25.216Z,26.68
2018-07-22T10:48:51.600Z,26.69
2018-07-22T10:51:17.968Z,26.70
2018-07-22T10:53:44.366Z,26.70
2018-07-22T10:56:10.758Z,26.72
2018-07-22T10:58:37.236Z,26.73
2018-07-22T11:01:03.583Z,26.74
2018-07-22T11:03:29.969Z,26.76
2018-07-22T11:05:56.322Z,26.75
2018-07-22T11:08:22.693Z,26.77
2018-07-22T11:10:49.078Z,26.78
2018-07-22T11:13:15.420Z,26.79
2018-07-22T11:15:41.749Z,26.81
2018-07-22T11:18:08.102Z,26.83
2018-07-22T11:20:34.587Z,26.84
2018-07-22T11:23:00.947Z,26.85
2018-07-22T11:25:27.299Z,26.85
2018-07-22T11:27:53.659Z,26.87
2018-07-22T11:30:20.156Z,26.88
2018-07-22T11:32:46.511Z,26.90
2018-07-22T11:35:12.916Z,26.92
2018-07-22T11:37:39.232Z,26.93
2018-07-22T11:40:05.599Z,26.93
2018-07-22T11:42:32.075Z,26.93
2018-07-22T11:44:58.430Z,26.95
2018-07-22T11:47:24.780Z,26.98
2018-07-22T11:49:51.115Z,26.99
2018-07-22T11:52:17.452Z,26.99
2018-07-22T11:54:43.790Z,27.00
2018-07-22T11:57:10.256Z,27.03
2018-07-22T11:59:36.612Z,27.05
2018-07-22T12:02:02.949Z,27.05
2018-07-22T12:04:29.323Z,27.04
2018-07-22T12:06:55.788Z,27.06
2018-07-22T12:09:22.177Z,27.05
2018-07-22T12:11:48.587Z,27.06
2018-07-22T12:14:15.051Z,27.09
2018-07-22T12:16:41.420Z,27.10
2018-07-22T12:19:07.750Z,27.12
2018-07-22T12:21:34.184Z,27.11
2018-07-22T12:24:00.556Z,27.11
2018-07-22T12:26:26.944Z,27.16
2018-07-22T12:28:53.361Z,27.17
2018-07-22T12:31:19.755Z,27.19
2018-07-22T12:33:46.133Z,27.17
2018-07-22T12:36:12.468Z,27.19
2018-07-22T12:38:38.872Z,27.19
2018-07-22T12:41:05.340Z,27.19
2018-07-22T12:43:31.729Z,27.20
2018-07-22T12:45:58.113Z,27.21
2018-07-22T12:48:24.563Z,27.21
2018-07-22T12:50:50.890Z,27.23
2018-07-22T12:53:17.227Z,27.23
2018-07-22T12:55:43.558Z,27.23
2018-07-22T12:58:09.936Z,27.24
2018-07-22T13:00:36.340Z,27.26
2018-07-22T13:03:02.758Z,27.27
2018-07-22T13:05:29.163Z,27.29
2018-07-22T13:07:55.539Z,27.28
2018-07-22T13:10:21.932Z,27.29
2018-07-22T13:12:48.260Z,27.28
2018-07-22T13:15:14.653Z,27.31
2018-07-22T13:17:40.995Z,27.29
2018-07-22T13:20:07.376Z,27.30
2018-07-22T13:22:33.719Z,27.30
2018-07-22T13:25:00.318Z,27.30
2018-07-22T13:27:26.713Z,27.30
2018-07-22T13:29:53.760Z,27.27
2018-07-22T13:32:20.222Z,27.28
2018-07-22T13:34:46.556Z,27.28
2018-07-22T13:37:12.922Z,27.25
2018-07-22T13:39:39.357Z,27.27
2018-07-22T13:42:05.820Z,27.26
2018-07-22T13:44:32.219Z,27.25
2018-07-22T13:46:58.768Z,27.26
2018-07-22T13:49:25.097Z,27.26
2018-07-22T13:51:51.460Z,27.27
2018-07-22T13:54:17.849Z,27.26
2018-07-22T13:56:44.461Z,27.26
2018-07-22T13:59:10.843Z,27.27
2018-07-22T14:01:37.171Z,27.25
2018-07-22T14:04:03.660Z,27.27
2018-07-22T14:06:30.040Z,27.26
2018-07-22T14:08:56.390Z,27.27
2018-07-22T14:11:22.769Z,27.26
2018-07-22T14:13:49.124Z,27.23
2018-07-22T14:16:15.649Z,27.26
2018-07-22T14:18:42.078Z,27.22
2018-07-22T14:21:08.445Z,27.24
2018-07-22T14:23:34.785Z,27.26
2018-07-22T14:26:01.283Z,27.26
2018-07-22T14:28:27.643Z,27.25
2018-07-22T14:30:54.144Z,27.26
2018-07-22T14:33:20.576Z,27.26
2018-07-22T14:35:46.948Z,27.26
2018-07-22T14:38:13.307Z,27.26
2018-07-22T14:40:39.720Z,27.24
2018-07-22T14:43:06.116Z,27.26
2018-07-22T14:45:32.544Z,27.26
2018-07-22T14:47:59.185Z,27.25
2018-07-22T14:50:25.718Z,27.22
2018-07-22T14:52:52.148Z,27.20
2018-07-22T14:55:18.516Z,27.21
2018-07-22T14:57:44.986Z,27.24
2018-07-22T15:00:11.343Z,27.23
2018-07-22T15:02:37.740Z,27.24
2018-07-22T15:05:04.086Z,27.23
2018-07-22T15:07:30.453Z,27.23
2018-07-22T15:09:56.955Z,27.22
2018-07-22T15:12:23.277Z,27.24
2018-07-22T15:14:49.654Z,27.21
2018-07-22T15:17:16.011Z,27.23
2018-07-22T15:19:42.388Z,27.22
2018-07-22T15:22:08.725Z,27.23
2018-07-22T15:24:35.194Z,27.20
2018-07-22T15:27:01.602Z,27.22
2018-07-22T15:29:28.031Z,27.21
2018-07-22T15:31:54.367Z,27.21
2018-07-22T15:34:20.725Z,27.20
2018-07-22T15:36:47.088Z,27.22
2018-07-22T15:39:13.474Z,27.23
2018-07-22T15:41:39.856Z,27.21
2018-07-22T15:44:06.184Z,27.22
2018-07-22T15:46:32.562Z,27.19
2018-07-22T15:48:58.890Z,27.18
2018-07-22T15:51:25.309Z,27.21
2018-07-22T15:53:51.712Z,27.23
2018-07-22T15:56:18.090Z,27.21
2018-07-22T15:58:44.408Z,27.20
2018-07-22T16:01:10.806Z,27.20
2018-07-22T16:03:37.143Z,27.21
2018-07-22T16:06:03.498Z,27.21
2018-07-22T16:08:29.903Z,27.20
2018-07-22T16:10:56.371Z,27.20
2018-07-22T16:13:22.739Z,27.20
2018-07-22T16:15:49.238Z,27.20
2018-07-22T16:18:15.555Z,27.19
2018-07-22T16:20:41.904Z,27.19
2018-07-22T16:23:08.344Z,27.18
2018-07-22T16:25:34.701Z,27.18
2018-07-22T16:28:01.103Z,27.17
2018-07-22T16:30:27.457Z,27.16
2018-07-22T16:32:53.883Z,27.19
2018-07-22T16:35:20.211Z,27.19
2018-07-22T16:37:46.543Z,27.20
2018-07-22T16:40:12.885Z,27.21
2018-07-22T16:42:39.317Z,27.18
2018-07-22T16:45:05.816Z,27.17
2018-07-22T16:47:32.178Z,27.20
2018-07-22T16:49:58.586Z,27.19
2018-07-22T16:52:24.915Z,27.19
2018-07-22T16:54:51.281Z,27.18
2018-07-22T16:57:17.619Z,27.17
2018-07-22T16:59:44.024Z,27.16
2018-07-22T17:02:10.366Z,27.16
2018-07-22T17:04:36.739Z,27.14
2018-07-22T17:07:03.071Z,27.14
2018-07-22T17:09:29.458Z,27.13
2018-07-22T17:11:55.860Z,27.13
2018-07-22T17:14:22.284Z,27.10
2018-07-22T17:16:48.643Z,27.10
2018-07-22T17:19:15.035Z,27.08
2018-07-22T17:21:41.407Z,27.09
2018-07-22T17:24:07.760Z,27.08
2018-07-22T17:26:34.152Z,27.06
2018-07-22T17:29:00.505Z,27.06
2018-07-22T17:31:26.934Z,27.04
2018-07-22T17:33:53.278Z,27.06
2018-07-22T17:36:19.655Z,27.05
2018-07-22T17:38:46.220Z,27.01
2018-07-22T17:41:12.764Z,27.02
2018-07-22T17:43:39.123Z,26.98
2018-07-22T17:46:05.517Z,27.01
2018-07-22T17:48:32.538Z,27.00
2018-07-22T17:50:58.877Z,26.99
2018-07-22T17:53:25.235Z,26.99
2018-07-22T17:55:51.716Z,27.01
2018-07-22T17:58:18.102Z,27.01
2018-07-22T18:00:44.464Z,26.98
2018-07-22T18:03:10.786Z,26.96
2018-07-22T18:05:37.193Z,26.96
2018-07-22T18:08:03.552Z,26.97
2018-07-22T18:10:29.882Z,26.95
2018-07-22T18:12:56.212Z,26.92
2018-07-22T18:15:22.616Z,26.93
2018-07-22T18:17:49.044Z,26.94
2018-07-22T18:20:15.539Z,26.95
2018-07-22T18:22:41.925Z,26.90
2018-07-22T18:25:08.266Z,26.88
2018-07-22T18:27:34.720Z,26.88
2018-07-22T18:30:01.124Z,26.90
2018-07-22T18:32:27.558Z,26.88
2018-07-22T18:34:53.910Z,26.86
2018-07-22T18:37:20.287Z,26.88
2018-07-22T18:39:46.677Z,26.87
2018-07-22T18:42:13.110Z,26.82
2018-07-22T18:44:39.475Z,26.81
2018-07-22T18:47:05.945Z,26.84
2018-07-22T18:49:32.348Z,26.81
2018-07-22T18:51:58.711Z,26.83
2018-07-22T18:54:25.111Z,26.87
2018-07-22T18:56:51.513Z,26.89
2018-07-22T18:59:17.910Z,26.87
2018-07-22T19:01:44.307Z,26.87
2018-07-22T19:04:10.773Z,26.84
2018-07-22T19:06:37.111Z,26.82
2018-07-22T19:09:03.543Z,26.83
2018-07-22T19:11:29.894Z,26.81
2018-07-22T19:13:56.235Z,26.78
2018-07-22T19:16:22.608Z,26.72
2018-07-22T19:18:48.962Z,26.73
2018-07-22T19:21:15.305Z,26.74
2018-07-22T19:23:41.691Z,26.71
2018-07-22T19:26:08.095Z,26.71
2018-07-22T19:28:34.560Z,26.68
2018-07-22T19:31:00.926Z,26.67
2018-07-22T19:33:27.314Z,26.65
2018-07-22T19:35:53.692Z,26.65
2018-07-22T19:38:20.038Z,26.66
2018-07-22T19:40:46.389Z,26.61
2018-07-22T19:43:12.746Z,26.58
2018-07-22T19:45:39.160Z,26.60
2018-07-22T19:48:05.547Z,26.56
2018-07-22T19:50:31.933Z,26.58
2018-07-22T19:52:58.271Z,26.54
2018-07-22T19:55:24.741Z,26.52
2018-07-22T19:57:51.094Z,26.50
2018-07-22T20:00:17.423Z,26.47
2018-07-22T20:02:43.763Z,26.49
2018-07-22T20:05:10.196Z,26.47
2018-07-22T20:07:36.583Z,26.46
2018-07-22T20:10:02.931Z,26.43
2018-07-22T20:12:29.333Z,26.43
2018-07-22T20:14:55.699Z,26.38
2018-07-22T20:17:22.065Z,26.42
2018-07-22T20:19:48.508Z,26.42
2018-07-22T20:22:14.860Z,26.42
2018-07-22T20:24:41.259Z,26.36
2018-07-22T20:27:07.693Z,26.34
2018-07-22T20:29:34.098Z,26.35
2018-07-22T20:32:00.460Z,26.32
2018-07-22T20:34:26.797Z,26.35
2018-07-22T20:36:53.284Z,26.32
2018-07-22T20:39:19.615Z,26.27
2018-07-22T20:41:45.962Z,26.26
2018-07-22T20:44:12.300Z,26.29
2018-07-22T20:46:38.653Z,26.24
2018-07-22T20:49:05.051Z,26.26
2018-07-22T20:51:31.407Z,26.24
2018-07-22T20:53:57.755Z,26.22
2018-07-22T20:56:24.211Z,26.22
2018-07-22T20:58:50.677Z,26.20
2018-07-22T21:01:17.058Z,26.17
2018-07-22T21:03:43.472Z,26.20
2018-07-22T21:06:09.907Z,26.22
2018-07-22T21:08:36.269Z,26.20
2018-07-22T21:11:02.652Z,26.21
2018-07-22T21:13:28.983Z,26.21
2018-07-22T21:15:55.339Z,26.24
2018-07-22T21:18:21.706Z,26.19
2018-07-22T21:20:48.086Z,26.11
2018-07-22T21:23:14.478Z,26.14
2018-07-22T21:25:40.811Z,26.17
2018-07-22T21:28:07.204Z,26.14
2018-07-22T21:30:33.571Z,26.13
2018-07-22T21:32:59.932Z,26.12
2018-07-22T21:35:26.286Z,26.15
2018-07-22T21:37:52.751Z,26.13
2018-07-22T21:40:19.254Z,26.14
2018-07-22T21:42:45.633Z,26.08
2018-07-22T21:45:12.029Z,26.10
2018-07-22T21:47:38.382Z,26.06
2018-07-22T21:50:04.720Z,26.04
2018-07-22T21:52:31.110Z,26.05
2018-07-22T21:54:57.476Z,26.00
2018-07-22T21:57:23.871Z,25.95
2018-07-22T21:59:50.203Z,25.92
2018-07-22T22:02:16.601Z,25.97
2018-07-22T22:04:42.969Z,25.95
2018-07-22T22:07:09.351Z,25.93
2018-07-22T22:09:35.678Z,25.87
2018-07-22T22:12:02.191Z,25.85
2018-07-22T22:14:28.654Z,25.85
2018-07-22T22:16:55.033Z,25.85
2018-07-22T22:19:21.376Z,25.87
2018-07-22T22:21:47.777Z,25.82
2018-07-22T22:24:14.135Z,25.82
2018-07-22T22:26:40.488Z,25.75
2018-07-22T22:29:06.836Z,25.79
2018-07-22T22:31:33.218Z,25.79
2018-07-22T22:33:59.563Z,25.75
2018-07-22T22:36:25.930Z,25.73
2018-07-22T22:38:52.247Z,25.72
2018-07-22T22:41:18.620Z,25.70
2018-07-22T22:43:44.956Z,25.68
2018-07-22T22:46:11.289Z,25.69
2018-07-22T22:48:37.611Z,25.68
2018-07-22T22:51:03.969Z,25.67
2018-07-22T22:53:30.314Z,25.67
2018-07-22T22:55:56.749Z,25.62
2018-07-22T22:58:23.188Z,25.64
2018-07-22T23:00:49.550Z,25.64
2018-07-22T23:03:15.920Z,25.63
2018-07-22T23:05:42.256Z,25.60
2018-07-22T23:08:08.742Z,25.58
2018-07-22T23:10:35.122Z,25.57
2018-07-22T23:13:01.507Z,25.57
2018-07-22T23:15:27.839Z,25.60
2018-07-22T23:17:54.215Z,25.54
2018-07-22T23:20:20.574Z,25.54
2018-07-22T23:22:46.924Z,25.54
2018-07-22T23:25:13.318Z,25.55
2018-07-22T23:27:39.664Z,25.54
2018-07-22T23:30:06.030Z,25.53
2018-07-22T23:32:32.366Z,25.49
2018-07-22T23:34:58.714Z,25.51
2018-07-22T23:37:25.058Z,25.48
2018-07-22T23:39:51.491Z,25.44
2018-07-22T23:42:17.824Z,25.45
2018-07-22T23:44:44.187Z,25.46
2018-07-22T23:47:10.515Z,25.42
2018-07-22T23:49:36.871Z,25.41
2018-07-22T23:52:03.206Z,25.43
2018-07-22T23:54:29.577Z,25.41
2018-07-22T23:56:55.948Z,25.40
2018-07-22T23:59:22.313Z,25.39
